Carlinville, IL

11:59 PM CST on December 10, 2016 (GMT -0600)
Carlinville Firehouse | | Change Station

Elev 623 ft 39.28 °N, 89.88 °W | Updated 25 seconds ago

Overcast
Overcast
33.3 °F
Feels Like 33 °F
N
0.0
Wind Variable Wind from SSE
Gusts 0.0 mph

Today
High -- | Low -- °F
--% Chance of Precip.
Yesterday
High -- | Low -- °F
Precip. -- in
Pressure 30.20 in
Visibility 10.0 miles
Clouds Overcast 6000 ft
Windchill 33 °F
Dew Point 22 °F
Humidity 63%
Rainfall 0.00 in
Snow Depth Not available.
7:08 AM 4:36 PM
Waxing Gibbous, 89% visible
METAR K3LF 110535Z AUTO 15014G18KT 10SM OVC060 00/M07 A3020 RMK AO2 T00001066
Pressure 30.20 in
Visibility 10.0 miles
Clouds Overcast 6000 ft
Windchill 33 °F
Dew Point 22 °F
Humidity 63%
Rainfall 0.00 in
Snow Depth Not available.
7:08 AM 4:36 PM
Waxing Gibbous, 89% visible
METAR K3LF 110535Z AUTO 15014G18KT 10SM OVC060 00/M07 A3020 RMK AO2 T00001066

10-Day Weather Forecast

Almanac

Astronomy

Dec. 10, 2016 Rise Set
Actual Time
Civil Twilight
Nautical Twilight
Astronomical Twilight
Moon
Length of Visible Light
Length of Day
Tomorrow will be .
, % of the Moon is Illuminated

Today's Extremes

State Highs State Lows

Community

WunderPhotos

Upload Photos

1,956,706 photos uploaded!

WunderBlog® & News

Nearby

Air Quality

  Air Quality AQ Index Pollutant
Not available.

Snow Depth

Station Depth Elevation

Earthquake Activity

City Distance Mag. Time & Date
Minimum magnitude displayed is 2.5.

Coastal Water Temperatures

Place Temperature

Stations

Nearby Weather Stations

Station Location Temp. Windchill Dew Point Humidity Wind Precip. Elev Updated Type
                   

Watches & Warnings

There are currently no watches in effect.